createdAt,value
2019-05-23T00:00:34.492Z,3.52
2019-05-23T00:03:24.438Z,3.87
2019-05-23T00:06:20.463Z,4.03
2019-05-23T00:09:09.839Z,4.17
2019-05-23T00:11:41.409Z,3.98
2019-05-23T00:14:32.328Z,3.80
2019-05-23T00:17:02.432Z,4.20
2019-05-23T00:19:33.856Z,3.72
2019-05-23T00:22:04.134Z,3.87
2019-05-23T00:24:34.985Z,4.22
2019-05-23T00:27:06.624Z,4.23
2019-05-23T00:29:40.407Z,4.12
2019-05-23T00:32:23.294Z,4.00
2019-05-23T00:34:54.290Z,4.60
2019-05-23T00:37:24.576Z,4.30
2019-05-23T00:39:54.635Z,4.45
2019-05-23T00:42:26.167Z,4.37
2019-05-23T00:44:57.420Z,4.17
2019-05-23T00:47:28.011Z,4.22
2019-05-23T00:49:58.095Z,4.03
2019-05-23T00:52:29.743Z,4.22
2019-05-23T00:54:59.740Z,4.40
2019-05-23T00:57:31.544Z,4.87
2019-05-23T01:02:31.863Z,4.05
2019-05-23T01:05:02.408Z,3.98
2019-05-23T01:07:32.728Z,4.60
2019-05-23T01:10:05.680Z,4.17
2019-05-23T01:12:37.335Z,4.10
2019-05-23T01:15:09.955Z,3.90
2019-05-23T01:17:40.247Z,4.75
2019-05-23T01:20:13.269Z,4.70
2019-05-23T01:22:43.824Z,4.33
2019-05-23T01:25:16.040Z,4.72
2019-05-23T01:27:46.404Z,4.35
2019-05-23T01:30:36.304Z,4.22
2019-05-23T01:33:06.744Z,4.75
2019-05-23T01:35:37.485Z,5.10
2019-05-23T01:38:07.975Z,4.78
2019-05-23T01:40:38.089Z,5.33
2019-05-23T01:43:08.078Z,4.53
2019-05-23T01:45:40.433Z,4.62
2019-05-23T01:48:11.265Z,4.62
2019-05-23T01:50:41.205Z,4.30
2019-05-23T01:53:11.954Z,4.55
2019-05-23T01:55:42.621Z,5.03
2019-05-23T01:58:13.468Z,4.85
2019-05-23T02:00:44.487Z,4.47
2019-05-23T02:03:15.121Z,4.72
2019-05-23T02:05:45.128Z,4.53
2019-05-23T02:08:16.426Z,4.53
2019-05-23T02:10:47.476Z,4.58
2019-05-23T02:13:17.744Z,4.40
2019-05-23T02:15:48.647Z,4.78
2019-05-23T02:20:50.886Z,4.53
2019-05-23T02:23:21.505Z,4.62
2019-05-23T02:25:51.727Z,4.80
2019-05-23T02:28:22.083Z,4.50
2019-05-23T02:30:52.804Z,4.58
2019-05-23T02:33:22.789Z,4.55
2019-05-23T02:35:52.924Z,4.83
2019-05-23T02:38:30.080Z,4.95
2019-05-23T02:41:04.673Z,5.05
2019-05-23T02:43:36.173Z,4.17
2019-05-23T02:46:11.169Z,4.53
2019-05-23T02:48:44.090Z,4.30
2019-05-23T02:51:30.236Z,4.95
2019-05-23T02:54:04.143Z,5.05
2019-05-23T02:56:36.016Z,4.60
2019-05-23T03:01:48.221Z,4.53
2019-05-23T03:04:20.946Z,4.47
2019-05-23T03:06:51.705Z,4.60
2019-05-23T03:09:23.844Z,4.53
2019-05-23T03:11:56.961Z,4.37
2019-05-23T03:14:27.841Z,4.42
2019-05-23T03:16:59.958Z,4.73
2019-05-23T03:19:42.509Z,4.85
2019-05-23T03:22:49.014Z,4.72
2019-05-23T03:25:38.241Z,4.62
2019-05-23T03:28:12.607Z,4.78
2019-05-23T03:30:44.950Z,4.75
2019-05-23T03:33:15.840Z,4.78
2019-05-23T03:35:56.506Z,4.67
2019-05-23T03:38:27.017Z,4.97
2019-05-23T03:40:57.005Z,4.62
2019-05-23T03:43:28.244Z,4.83
2019-05-23T03:46:09.366Z,4.83
2019-05-23T03:48:40.644Z,4.90
2019-05-23T03:51:10.569Z,4.58
2019-05-23T03:53:42.561Z,5.12
2019-05-23T03:56:13.522Z,4.72
2019-05-23T03:58:45.017Z,5.47
2019-05-23T04:01:16.175Z,4.90
2019-05-23T04:03:48.185Z,4.85
2019-05-23T04:06:18.562Z,5.23
2019-05-23T04:08:49.629Z,4.67
2019-05-23T04:11:20.228Z,4.93
2019-05-23T04:13:50.913Z,4.72
2019-05-23T04:16:21.070Z,4.75
2019-05-23T04:18:51.412Z,5.30
2019-05-23T04:21:24.921Z,4.75
2019-05-23T04:23:55.893Z,4.90
2019-05-23T04:26:26.911Z,4.77
2019-05-23T04:28:56.896Z,4.30
2019-05-23T04:31:27.368Z,4.85
2019-05-23T04:33:57.415Z,4.87
2019-05-23T04:36:28.666Z,4.63
2019-05-23T04:38:59.347Z,4.53
2019-05-23T04:41:30.004Z,4.97
2019-05-23T04:43:59.923Z,4.83
2019-05-23T04:46:29.857Z,4.78
2019-05-23T04:49:00.406Z,4.92
2019-05-23T04:51:31.003Z,4.70
2019-05-23T04:54:01.920Z,4.42
2019-05-23T04:56:32.270Z,3.98
2019-05-23T04:59:03.457Z,5.05
2019-05-23T05:01:34.209Z,4.37
2019-05-23T05:04:06.053Z,5.17
2019-05-23T05:06:36.169Z,4.78
2019-05-23T05:09:08.641Z,5.03
2019-05-23T05:11:38.658Z,5.10
2019-05-23T05:14:09.299Z,5.10
2019-05-23T05:16:39.653Z,5.00
2019-05-23T05:19:10.136Z,5.35
2019-05-23T05:21:40.333Z,4.75
2019-05-23T05:24:10.341Z,5.58
2019-05-23T05:26:40.637Z,4.20
2019-05-23T05:29:10.918Z,4.30
2019-05-23T05:31:40.834Z,4.67
2019-05-23T05:34:10.845Z,4.90
2019-05-23T05:36:41.326Z,4.80
2019-05-23T05:39:12.875Z,4.53
2019-05-23T05:41:43.171Z,10.70
2019-05-23T05:44:14.024Z,7.53
2019-05-23T05:46:43.948Z,6.83
2019-05-23T05:49:14.442Z,6.95
2019-05-23T05:51:44.751Z,9.88
2019-05-23T05:54:15.344Z,12.95
2019-05-23T05:56:45.308Z,9.58
2019-05-23T05:59:15.226Z,9.80
2019-05-23T06:01:46.556Z,8.88
2019-05-23T06:04:16.485Z,10.32
2019-05-23T06:06:54.146Z,8.80
2019-05-23T06:09:25.785Z,9.95
2019-05-23T06:11:55.805Z,20.05
2019-05-23T06:14:25.899Z,6.55
2019-05-23T06:16:56.634Z,10.70
2019-05-23T06:19:26.883Z,8.38
2019-05-23T06:21:56.826Z,7.58
2019-05-23T06:24:42.357Z,8.00
2019-05-23T06:26:58.837Z,9.68
2019-05-23T06:29:28.998Z,8.78
2019-05-23T06:32:00.131Z,6.80
2019-05-23T06:34:30.281Z,8.60
2019-05-23T06:37:00.462Z,9.25
2019-05-23T06:39:31.199Z,9.13
2019-05-23T06:42:01.129Z,8.20
2019-05-23T06:44:31.641Z,10.20
2019-05-23T06:47:01.831Z,7.35
2019-05-23T06:49:31.948Z,8.53
2019-05-23T06:52:01.958Z,9.25
2019-05-23T06:54:32.112Z,10.20
2019-05-23T06:57:02.138Z,9.15
2019-05-23T06:59:32.056Z,10.20
2019-05-23T07:02:03.052Z,7.47
2019-05-23T07:04:33.216Z,9.28
2019-05-23T07:07:04.572Z,10.80
2019-05-23T07:09:34.972Z,11.70
2019-05-23T07:12:05.589Z,10.80
2019-05-23T07:14:36.655Z,10.03
2019-05-23T07:17:06.783Z,12.13
2019-05-23T07:19:36.728Z,11.08
2019-05-23T07:22:06.657Z,12.93
2019-05-23T07:24:36.573Z,14.23
2019-05-23T07:27:06.527Z,11.97
2019-05-23T07:29:37.088Z,13.55
2019-05-23T07:32:07.465Z,8.78
2019-05-23T07:34:37.406Z,10.15
2019-05-23T07:37:07.436Z,10.15
2019-05-23T07:39:37.431Z,11.00
2019-05-23T07:42:08.102Z,8.95
2019-05-23T07:44:47.958Z,12.95
2019-05-23T07:47:11.973Z,9.70
2019-05-23T07:49:41.899Z,10.98
2019-05-23T07:52:11.813Z,10.95
2019-05-23T07:54:49.446Z,10.88
2019-05-23T07:57:19.945Z,11.05
2019-05-23T07:59:50.525Z,10.93
2019-05-23T08:02:26.134Z,12.10
2019-05-23T08:04:57.042Z,10.23
2019-05-23T08:07:27.321Z,13.65
2019-05-23T08:09:57.562Z,12.85
2019-05-23T08:12:28.813Z,11.12
2019-05-23T08:14:59.025Z,11.85
2019-05-23T08:17:29.185Z,11.48
2019-05-23T08:19:59.068Z,13.43
2019-05-23T08:22:29.430Z,9.88
2019-05-23T08:24:59.442Z,12.25
2019-05-23T08:27:29.432Z,11.28
2019-05-23T08:30:02.197Z,11.43
2019-05-23T08:32:31.729Z,12.28
2019-05-23T08:35:03.333Z,12.23
2019-05-23T08:37:34.041Z,13.43
2019-05-23T08:40:06.113Z,10.58
2019-05-23T08:42:37.353Z,10.58
2019-05-23T08:45:09.270Z,10.18
2019-05-23T08:50:10.409Z,9.25
2019-05-23T08:52:40.598Z,9.55
2019-05-23T08:55:25.451Z,11.22
2019-05-23T08:57:56.527Z,12.00
2019-05-23T09:00:28.445Z,10.98
2019-05-23T09:05:31.563Z,10.28
2019-05-23T09:08:01.883Z,10.95
2019-05-23T09:10:32.856Z,11.03
2019-05-23T09:13:03.677Z,8.45
2019-05-23T09:18:04.792Z,10.75
2019-05-23T09:20:34.959Z,11.28
2019-05-23T09:23:05.376Z,9.90
2019-05-23T09:25:35.689Z,10.30
2019-05-23T09:28:06.866Z,10.75
2019-05-23T09:30:37.044Z,9.83
2019-05-23T09:33:07.105Z,9.30
2019-05-23T09:35:37.323Z,11.43
2019-05-23T09:38:07.420Z,9.95
2019-05-23T09:40:37.500Z,8.55
2019-05-23T09:43:08.240Z,8.10
2019-05-23T09:45:38.709Z,11.33
2019-05-23T09:48:08.931Z,7.65
2019-05-23T09:50:38.926Z,7.67
2019-05-23T09:53:09.005Z,8.55
2019-05-23T09:55:39.187Z,9.98
2019-05-23T09:58:09.290Z,8.48
2019-05-23T10:00:40.573Z,8.40
2019-05-23T10:03:10.760Z,9.18
2019-05-23T10:05:43.855Z,7.37
2019-05-23T10:08:12.951Z,7.37
2019-05-23T10:10:43.234Z,7.95
2019-05-23T10:13:14.467Z,9.50
2019-05-23T10:15:49.811Z,8.35
2019-05-23T10:18:22.944Z,7.95
2019-05-23T10:20:53.128Z,8.55
2019-05-23T10:23:23.113Z,8.25
2019-05-23T10:25:53.062Z,7.35
2019-05-23T10:28:23.184Z,6.42
2019-05-23T10:30:53.123Z,7.47
2019-05-23T10:33:23.034Z,7.67
2019-05-23T10:36:00.561Z,7.97
2019-05-23T10:38:29.163Z,7.92
2019-05-23T10:40:58.065Z,6.45
2019-05-23T10:43:28.440Z,6.92
2019-05-23T10:45:58.540Z,6.90
2019-05-23T10:48:30.222Z,6.60
2019-05-23T10:51:00.701Z,6.53
2019-05-23T10:53:30.578Z,6.47
2019-05-23T10:56:00.800Z,7.12
2019-05-23T10:58:31.150Z,7.40
2019-05-23T11:01:01.454Z,7.40
2019-05-23T11:03:31.816Z,9.65
2019-05-23T11:06:14.872Z,8.10
2019-05-23T11:08:34.079Z,8.08
2019-05-23T11:11:05.135Z,7.47
2019-05-23T11:13:35.590Z,7.33
2019-05-23T11:16:05.988Z,6.10
2019-05-23T11:18:36.259Z,6.10
2019-05-23T11:21:06.364Z,6.17
2019-05-23T11:23:38.072Z,6.20
2019-05-23T11:26:09.259Z,9.35
2019-05-23T11:28:39.839Z,6.42
2019-05-23T11:31:11.740Z,7.53
2019-05-23T11:36:11.192Z,6.05
2019-05-23T11:38:41.469Z,6.05
2019-05-23T11:41:11.821Z,5.92
2019-05-23T11:43:42.126Z,6.85
2019-05-23T11:46:13.745Z,5.10
2019-05-23T11:48:44.220Z,5.80
2019-05-23T11:51:14.416Z,5.12
2019-05-23T11:53:47.033Z,5.87
2019-05-23T11:56:16.208Z,6.55
2019-05-23T11:58:46.225Z,7.33
2019-05-23T12:01:21.544Z,6.67
2019-05-23T12:03:53.321Z,6.00
2019-05-23T12:06:26.218Z,6.97
2019-05-23T12:08:55.474Z,5.95
2019-05-23T12:11:25.477Z,5.65
2019-05-23T12:13:55.414Z,5.45
2019-05-23T12:16:25.645Z,5.53
2019-05-23T12:18:55.857Z,6.30
2019-05-23T12:21:26.860Z,6.08
2019-05-23T12:23:56.788Z,5.50
2019-05-23T12:26:26.672Z,5.47
2019-05-23T12:28:56.734Z,5.75
2019-05-23T12:31:27.922Z,5.10
2019-05-23T12:33:57.920Z,5.45
2019-05-23T12:36:27.948Z,6.30
2019-05-23T12:38:58.139Z,7.15
2019-05-23T12:41:28.140Z,5.45
2019-05-23T12:43:58.003Z,5.97
2019-05-23T12:46:28.022Z,5.78
2019-05-23T12:49:02.399Z,5.30
2019-05-23T12:51:39.600Z,5.55
2019-05-23T12:54:10.049Z,5.10
2019-05-23T12:56:40.558Z,5.62
2019-05-23T12:59:10.942Z,5.28
2019-05-23T13:01:42.569Z,5.28
2019-05-23T13:04:13.131Z,6.37
2019-05-23T13:06:43.405Z,5.45
2019-05-23T13:09:13.517Z,5.15
2019-05-23T13:11:43.517Z,5.08
2019-05-23T13:14:15.041Z,5.35
2019-05-23T13:16:45.260Z,4.45
2019-05-23T13:19:16.263Z,5.33
2019-05-23T13:21:46.277Z,5.58
2019-05-23T13:24:16.357Z,6.80
2019-05-23T13:26:46.236Z,4.70
2019-05-23T13:29:16.213Z,4.90
2019-05-23T13:31:46.145Z,4.80
2019-05-23T13:34:15.995Z,5.25
2019-05-23T13:36:46.232Z,5.35
2019-05-23T13:39:18.067Z,4.80
2019-05-23T13:41:48.195Z,4.78
2019-05-23T13:44:33.031Z,4.83
2019-05-23T13:46:50.106Z,5.37
2019-05-23T13:49:20.033Z,5.55
2019-05-23T13:51:50.402Z,4.20
2019-05-23T13:54:21.012Z,4.60
2019-05-23T13:56:51.308Z,4.72
2019-05-23T13:59:21.724Z,4.97
2019-05-23T14:01:52.421Z,6.35
2019-05-23T14:04:22.636Z,5.15
2019-05-23T14:06:52.576Z,5.12
2019-05-23T14:09:23.329Z,4.53
2019-05-23T14:12:19.463Z,5.10
2019-05-23T14:14:25.521Z,4.53
2019-05-23T14:17:15.685Z,4.42
2019-05-23T14:19:45.967Z,3.87
2019-05-23T14:22:16.521Z,4.20
2019-05-23T14:24:46.671Z,4.17
2019-05-23T14:27:21.210Z,4.17
2019-05-23T14:29:51.126Z,4.33
2019-05-23T14:32:22.812Z,4.47
2019-05-23T14:34:54.651Z,4.70
2019-05-23T14:40:06.912Z,3.92
2019-05-23T14:42:53.596Z,4.10
2019-05-23T14:45:25.473Z,4.35
2019-05-23T14:50:33.746Z,4.90
2019-05-23T14:53:06.071Z,4.35
2019-05-23T14:55:36.252Z,5.37
2019-05-23T14:58:06.399Z,4.33
2019-05-23T15:00:38.482Z,5.33
2019-05-23T15:03:08.673Z,4.42
2019-05-23T15:05:39.089Z,4.55
2019-05-23T15:08:09.006Z,4.53
2019-05-23T15:10:39.319Z,4.30
2019-05-23T15:15:40.256Z,4.12
2019-05-23T15:18:10.523Z,4.00
2019-05-23T15:20:40.468Z,4.65
2019-05-23T15:23:10.415Z,4.45
2019-05-23T15:25:40.542Z,4.00
2019-05-23T15:28:10.691Z,3.58
2019-05-23T15:30:40.776Z,3.83
2019-05-23T15:33:10.717Z,3.95
2019-05-23T15:35:40.848Z,4.40
2019-05-23T15:38:10.798Z,5.37
2019-05-23T15:40:40.932Z,3.90
2019-05-23T15:43:10.988Z,4.05
2019-05-23T15:45:40.911Z,4.28
2019-05-23T15:48:10.855Z,4.25
2019-05-23T15:50:51.573Z,4.25
2019-05-23T15:53:39.369Z,4.17
2019-05-23T15:56:26.868Z,4.60
2019-05-23T15:59:00.358Z,3.65
2019-05-23T16:01:34.436Z,4.60
2019-05-23T16:04:06.685Z,3.98
2019-05-23T16:06:37.485Z,4.05
2019-05-23T16:09:27.515Z,3.50
2019-05-23T16:11:43.094Z,4.12
2019-05-23T16:14:13.316Z,3.58
2019-05-23T16:16:43.336Z,3.40
2019-05-23T16:19:13.321Z,3.90
2019-05-23T16:21:43.625Z,3.77
2019-05-23T16:24:14.825Z,3.70
2019-05-23T16:26:46.032Z,4.42
2019-05-23T16:29:16.418Z,4.03
2019-05-23T16:31:46.592Z,5.47
2019-05-23T16:34:16.619Z,3.92
2019-05-23T16:36:46.626Z,3.27
2019-05-23T16:39:17.410Z,4.03
2019-05-23T16:41:47.420Z,3.87
2019-05-23T16:44:17.416Z,2.98
2019-05-23T16:46:47.462Z,4.85
2019-05-23T16:49:17.379Z,3.50
2019-05-23T16:51:47.388Z,3.30
2019-05-23T16:54:19.114Z,3.75
2019-05-23T16:56:59.800Z,4.15
2019-05-23T16:59:31.478Z,3.90
2019-05-23T17:02:08.632Z,4.28
2019-05-23T17:04:40.211Z,3.62
2019-05-23T17:07:28.055Z,3.75
2019-05-23T17:10:08.621Z,3.25
2019-05-23T17:12:35.632Z,3.72
2019-05-23T17:15:14.860Z,3.92
2019-05-23T17:18:02.735Z,3.55
2019-05-23T17:20:28.719Z,3.40
2019-05-23T17:23:09.016Z,3.10
2019-05-23T17:25:43.415Z,2.77
2019-05-23T17:28:15.049Z,3.87
2019-05-23T17:30:55.665Z,3.75
2019-05-23T17:33:25.928Z,3.65
2019-05-23T17:35:56.599Z,3.08
2019-05-23T17:40:57.151Z,3.20
2019-05-23T17:43:27.340Z,3.60
2019-05-23T17:45:57.379Z,3.22
2019-05-23T17:48:27.426Z,3.25
2019-05-23T17:50:57.361Z,3.47
2019-05-23T17:53:27.841Z,3.37
2019-05-23T17:55:58.378Z,4.35
2019-05-23T17:58:28.449Z,4.35
2019-05-23T18:00:59.094Z,4.17
2019-05-23T18:03:29.145Z,3.27
2019-05-23T18:06:00.806Z,3.12
2019-05-23T18:08:31.819Z,2.83
2019-05-23T18:11:02.055Z,2.65
2019-05-23T18:13:32.182Z,3.00
2019-05-23T18:16:02.342Z,3.70
2019-05-23T18:18:32.954Z,3.50
2019-05-23T18:21:03.412Z,3.10
2019-05-23T18:23:33.685Z,2.72
2019-05-23T18:26:05.513Z,3.02
2019-05-23T18:28:36.113Z,3.30
2019-05-23T18:31:12.212Z,2.92
2019-05-23T18:33:43.220Z,3.27
2019-05-23T18:36:14.317Z,3.47
2019-05-23T18:38:44.879Z,3.20
2019-05-23T18:41:14.973Z,2.75
2019-05-23T18:43:45.471Z,2.92
2019-05-23T18:46:17.061Z,3.37
2019-05-23T18:48:47.119Z,3.05
2019-05-23T18:51:17.134Z,3.15
2019-05-23T18:53:47.137Z,3.05
2019-05-23T18:56:17.615Z,2.90
2019-05-23T18:58:48.265Z,3.25
2019-05-23T19:01:19.753Z,3.65
2019-05-23T19:03:49.772Z,3.33
2019-05-23T19:06:20.522Z,2.98
2019-05-23T19:08:50.915Z,3.40
2019-05-23T19:11:21.956Z,3.40
2019-05-23T19:13:52.058Z,4.10
2019-05-23T19:16:22.076Z,2.70
2019-05-23T19:18:52.218Z,3.02
2019-05-23T19:21:22.480Z,2.92
2019-05-23T19:23:52.417Z,2.70
2019-05-23T19:26:22.827Z,3.08
2019-05-23T19:28:53.137Z,2.58
2019-05-23T19:31:23.727Z,3.05
2019-05-23T19:33:53.722Z,3.12
2019-05-23T19:36:24.012Z,3.00
2019-05-23T19:38:54.071Z,2.67
2019-05-23T19:41:36.940Z,2.92
2019-05-23T19:43:56.582Z,2.72
2019-05-23T19:46:26.608Z,3.08
2019-05-23T19:48:57.542Z,2.60
2019-05-23T19:51:27.638Z,2.50
2019-05-23T19:53:57.988Z,2.50
2019-05-23T19:56:27.966Z,2.62
2019-05-23T19:58:58.020Z,3.92
2019-05-23T20:01:32.295Z,5.72
2019-05-23T20:04:02.998Z,5.17
2019-05-23T20:06:33.059Z,3.77
2019-05-23T20:09:05.204Z,3.67
2019-05-23T20:11:35.353Z,3.00
2019-05-23T20:14:05.374Z,3.58
2019-05-23T20:16:35.743Z,3.15
2019-05-23T20:19:06.624Z,4.37
2019-05-23T20:21:36.610Z,3.70
2019-05-23T20:24:06.688Z,4.00
2019-05-23T20:26:36.641Z,4.87
2019-05-23T20:29:06.623Z,4.05
2019-05-23T20:31:36.752Z,3.47
2019-05-23T20:34:07.664Z,3.95
2019-05-23T20:36:38.757Z,3.02
2019-05-23T20:39:08.771Z,3.58
2019-05-23T20:41:39.402Z,3.05
2019-05-23T20:44:09.473Z,3.12
2019-05-23T20:46:40.328Z,3.30
2019-05-23T20:49:10.264Z,3.17
2019-05-23T20:51:40.646Z,3.33
2019-05-23T20:54:10.714Z,5.42
2019-05-23T20:56:40.663Z,2.98
2019-05-23T20:59:10.912Z,2.80
2019-05-23T21:01:42.333Z,4.15
2019-05-23T21:04:12.426Z,4.78
2019-05-23T21:06:42.360Z,3.60
2019-05-23T21:09:15.531Z,4.28
2019-05-23T21:11:43.880Z,3.62
2019-05-23T21:14:13.937Z,3.37
2019-05-23T21:16:43.801Z,3.05
2019-05-23T21:19:13.657Z,4.08
2019-05-23T21:21:43.581Z,3.25
2019-05-23T21:24:13.445Z,3.67
2019-05-23T21:26:43.292Z,2.58
2019-05-23T21:29:13.260Z,3.22
2019-05-23T21:31:43.240Z,3.27
2019-05-23T21:34:13.399Z,5.10
2019-05-23T21:36:43.471Z,2.40
2019-05-23T21:39:14.255Z,4.70
2019-05-23T21:41:44.401Z,3.22
2019-05-23T21:44:14.338Z,3.52
2019-05-23T21:46:44.185Z,3.65
2019-05-23T21:49:14.202Z,2.70
2019-05-23T21:51:44.150Z,2.90
2019-05-23T21:54:14.405Z,3.42
2019-05-23T21:56:44.277Z,2.52
2019-05-23T21:59:26.349Z,2.75
2019-05-23T22:04:31.413Z,3.30
2019-05-23T22:07:01.424Z,2.75
2019-05-23T22:09:31.657Z,3.40
2019-05-23T22:12:02.218Z,3.20
2019-05-23T22:14:32.473Z,2.40
2019-05-23T22:17:02.480Z,2.70
2019-05-23T22:19:33.630Z,3.37
2019-05-23T22:22:04.161Z,2.12
2019-05-23T22:24:34.069Z,2.55
2019-05-23T22:27:05.937Z,2.70
2019-05-23T22:29:35.911Z,2.83
2019-05-23T22:32:07.767Z,2.75
2019-05-23T22:37:10.615Z,2.42
2019-05-23T22:39:40.710Z,2.72
2019-05-23T22:42:11.292Z,2.42
2019-05-23T22:44:41.481Z,2.52
2019-05-23T22:47:11.657Z,3.10
2019-05-23T22:49:41.497Z,3.17
2019-05-23T22:52:12.575Z,2.30
2019-05-23T22:54:42.566Z,2.50
2019-05-23T22:57:12.484Z,3.20
2019-05-23T22:59:42.429Z,2.98
2019-05-23T23:02:13.398Z,2.80
2019-05-23T23:04:43.410Z,2.40
2019-05-23T23:07:13.582Z,2.37
2019-05-23T23:09:43.530Z,2.50
2019-05-23T23:12:13.595Z,2.45
2019-05-23T23:14:43.521Z,2.40
2019-05-23T23:17:13.518Z,2.30
2019-05-23T23:19:43.524Z,2.98
2019-05-23T23:22:13.719Z,3.52
2019-05-23T23:24:43.662Z,2.58
2019-05-23T23:27:13.586Z,3.27
2019-05-23T23:29:44.594Z,2.63
2019-05-23T23:32:14.671Z,2.37
2019-05-23T23:34:44.518Z,2.40
2019-05-23T23:37:15.352Z,2.45
2019-05-23T23:39:45.228Z,3.50
2019-05-23T23:42:15.284Z,2.30
2019-05-23T23:44:44.439Z,2.95
2019-05-23T23:47:32.588Z,2.75
2019-05-23T23:50:20.728Z,2.30
2019-05-23T23:53:08.750Z,1.90
2019-05-23T23:55:56.817Z,2.40
2019-05-23T23:58:26.225Z,3.22
